KPIE/PIE METAR and TAF weather

Enter ICAO airport designator
Station Type Date Time Source
KPIE METAR 2022/06/25 22:53 UTC NOAA

KPIE 252253Z 01008KT 10SM CLR 29/24 A2998 RMK AO2 SLP153 T02940244


Station Type Date Time Source
KPIE Decoded METAR 2022/06/25 22:53 UTC NOAA

ST PETERSBURG/CLEARWATER, FL, United States (KPIE) 27-55N 82-41W 4M
Jun 25, 2022 - 06:53 PM EDT / 2022.06.25 2253 UTC
Wind: from the N (010 degrees) at 9 MPH (8 KT):0
Visibility: 10 mile(s):0
Sky conditions: clear
Temperature: 84.9 F (29.4 C)
Dew Point: 75.9 F (24.4 C)
Relative Humidity: 74%
Pressure (altimeter): 29.98 in. Hg (1015 hPa)
ob: KPIE 252253Z 01008KT 10SM CLR 29/24 A2998 RMK AO2 SLP153 T02940244
cycle: 23

Station Type Date Time Source
KPIE TAF 2022/06/25 18:36 UTC NOAA

TAF KPIE 251734Z 2518/2618 VRB06KT P6SM VCSH FEW030 BKN100
FM252100 36009KT P6SM VCTS SCT025CB BKN040 BKN100
TEMPO 2521/2524 4SM TSRA BR SCT015CB OVC030
FM260300 04007KT P6SM SCT050 BKN250
FM261500 07006KT P6SM SCT030 SCT250

Example: see airport list